Terminal Aerodrome Forecast
Issued by NWS

Home | Current Version | Previous Version | Text Only | Print | Product List | Glossary On
Versions: 1 2 3 4 5 6 7 8 9 10 11 12
725
FTUS43 KIND 072335
TAFHUF
TAF
KHUF 072335Z 0800/0824 25010KT P6SM SCT040 BKN150
     FM080300 25005KT P6SM SCT040 BKN120
     FM081000 25006KT P6SM SCT025 OVC040
     FM081200 28010KT 4SM -SHSN OVC020
     FM081600 29012G20KT 5SM -SHSN OVC025=

USA.gov is the U.S. government's official web portal to all federal, state and local government web resources and services.